Historyczne dane pomiarowe

Dodano dane terminowe – wersja testowa.

Dane z okresu 1951-2019

Wersja bazy: 1.34 [2019-03-16, lista zmian], aktualizacja planowana na 2019-04-15

Dane meteo z obszaru Polski uzyskane na podstawie danych udostępnionych przez Instytut Meteorologii i Gospodarki Wodnej – Państwowy Instytut Badawczy.

 

Wybierz Datę:    

       

TemperaturaWilgotnośćWiatrCiśnienieOpadyŚniegCzas trwania zjawisk
 Stacja t tx tn tng RH VA  wxwx mslp ppp RRR   cm mm wxwxwxwxwxwxwx
1952-04-17 4.9 11.7 -4.6 -7.1 58.5- 3.0 1.7---- 0.0------------
1952-04-18 8.5 14.6 2.5 2.0 62.5- 0.7 3.3---- 0.0------------
1952-04-19 10.0 17.9 2.1 -3.5 68.8- 4.0 3.3---- 0.2------------
1952-04-20 11.2 18.5 -0.2 -4.1 63.0- 4.7 2.3---- 0.1------------
1952-04-21 12.5 17.3 9.0 5.5 77.0- 5.7 2.0---- 0.0------------
1952-04-22 15.5 23.0 4.7 1.2 69.5- 7.0 4.7---- 9.2------------
1952-04-23 9.5 13.4 8.6 8.2 77.5- 8.0 1.0---- 3.5------------
1952-04-24 6.7 8.9 5.8 5.5 91.5- 8.0 2.0---- 0.7------------
1952-04-25 8.3 10.6 5.7 5.6 92.3- 8.0 1.3---- 4.2------------
1952-04-26 8.2 12.8 4.7 2.3 84.0- 4.3 1.3---- 0.3------------
1952-04-27 6.6 7.9 5.1 5.2 93.5- 8.0 1.3---- 0.1------------
1952-04-28 10.3 15.2 4.7 5.4 87.0- 7.7 1.3---- 3.8------------
1952-04-29 7.6 12.1 5.1 7.4 94.5- 5.3 1.0---- 2.6------------
1952-04-30 12.7 17.1 1.5 -2.1 71.5- 4.7 2.0---- 0.0------------
1952-05-01 9.6 16.3 4.6 3.3 82.0- 5.7 2.0---- 0.5------------
1952-05-02 5.1 7.9 3.0 5.3 85.3- 6.3 2.7---- 0.0------------
1952-05-03 8.4 15.3 -1.4 -3.8 64.8- 1.7 3.0---- 0.0------------
1952-05-04 17.4 22.5 5.8 2.0 57.5- 3.3 6.7---- 0.0------------
1952-05-05 16.0 21.4 12.0 10.7 79.0- 7.7 3.0---- 0.5------------
1952-05-06 14.2 20.7 10.3 5.2 82.5- 3.7 2.3---- 34.0------------
1952-05-07 14.1 21.0 5.9 3.0 75.3- 2.7 2.3---- 0.0------------
1952-05-08 12.9 19.7 5.5 6.3 71.3- 3.3 2.3---- 0.0------------
1952-05-09 13.1 19.0 6.6 3.1 55.0- 1.0 4.3---- 0.0------------
1952-05-10 15.4 20.5 6.9 1.1 64.0- 6.7 1.7---- 0.0------------
1952-05-11 11.0 16.2 8.4 11.0 86.5- 5.7 2.3---- 0.0------------
1952-05-12 12.5 19.0 1.3 -1.4 74.8- 3.0 1.0---- 0.8------------
1952-05-13 8.5 11.7 7.0 5.3 93.5- 8.0 2.3---- 6.1------------
1952-05-14 9.0 11.4 6.9 6.5 83.8- 8.0 4.0---- 6.4------------
1952-05-15 5.4 10.0 2.4 7.6 86.3- 5.7 2.0---- 1.3------------
1952-05-16 3.5 6.9 -3.3 -6.5 83.0- 7.0 0.7---- 3.2------------
76.0 ms

 

Źródłem pochodzenia danych jest Instytut Meteorologii i Gospodarki Wodnej – Państwowy Instytut Badawczy. Dane Instytutu Meteorologii i Gospodarki Wodnej – Państwowego Instytutu Badawczego zostały przetworzone.

Dane źródłowe można odnaleźć na stronie https://dane.imgw.pl